sensor_id;sensor_type;location;lat;lon;timestamp;P1;durP1;ratioP1;P2;durP2;ratioP2
6987;SDS011;3534;49.960;8.018;2024-02-14T00:01:16;3.63;;;2.63;;
6987;SDS011;3534;49.960;8.018;2024-02-14T00:03:43;4.10;;;2.60;;
6987;SDS011;3534;49.960;8.018;2024-02-14T00:06:10;5.23;;;3.00;;
6987;SDS011;3534;49.960;8.018;2024-02-14T00:08:39;5.03;;;2.63;;
6987;SDS011;3534;49.960;8.018;2024-02-14T00:11:06;7.13;;;3.03;;
6987;SDS011;3534;49.960;8.018;2024-02-14T00:13:33;3.47;;;3.10;;
6987;SDS011;3534;49.960;8.018;2024-02-14T00:15:59;7.43;;;4.07;;
6987;SDS011;3534;49.960;8.018;2024-02-14T00:18:27;7.37;;;4.17;;
6987;SDS011;3534;49.960;8.018;2024-02-14T00:20:54;10.40;;;3.57;;
6987;SDS011;3534;49.960;8.018;2024-02-14T00:23:21;6.60;;;3.40;;
6987;SDS011;3534;49.960;8.018;2024-02-14T00:25:49;4.47;;;3.10;;
6987;SDS011;3534;49.960;8.018;2024-02-14T00:28:16;5.10;;;2.53;;
6987;SDS011;3534;49.960;8.018;2024-02-14T00:30:42;3.73;;;2.87;;
6987;SDS011;3534;49.960;8.018;2024-02-14T00:33:09;6.57;;;3.47;;
6987;SDS011;3534;49.960;8.018;2024-02-14T00:35:36;9.70;;;3.73;;
6987;SDS011;3534;49.960;8.018;2024-02-14T00:38:02;3.70;;;3.37;;
6987;SDS011;3534;49.960;8.018;2024-02-14T00:40:29;5.70;;;2.97;;
6987;SDS011;3534;49.960;8.018;2024-02-14T00:42:58;6.10;;;3.83;;
6987;SDS011;3534;49.960;8.018;2024-02-14T00:45:25;4.23;;;3.53;;
6987;SDS011;3534;49.960;8.018;2024-02-14T00:47:52;9.63;;;5.03;;
6987;SDS011;3534;49.960;8.018;2024-02-14T00:50:18;9.97;;;4.43;;
6987;SDS011;3534;49.960;8.018;2024-02-14T00:52:45;4.50;;;3.47;;
6987;SDS011;3534;49.960;8.018;2024-02-14T00:55:12;8.47;;;4.50;;
6987;SDS011;3534;49.960;8.018;2024-02-14T00:57:38;8.77;;;4.17;;
6987;SDS011;3534;49.960;8.018;2024-02-14T01:00:07;6.83;;;4.70;;
6987;SDS011;3534;49.960;8.018;2024-02-14T01:02:34;8.07;;;4.40;;
6987;SDS011;3534;49.960;8.018;2024-02-14T01:05:01;7.80;;;4.93;;
6987;SDS011;3534;49.960;8.018;2024-02-14T01:07:29;8.57;;;4.40;;
6987;SDS011;3534;49.960;8.018;2024-02-14T01:09:56;7.43;;;4.03;;
6987;SDS011;3534;49.960;8.018;2024-02-14T01:12:23;7.53;;;4.30;;
6987;SDS011;3534;49.960;8.018;2024-02-14T01:14:49;6.57;;;5.00;;
6987;SDS011;3534;49.960;8.018;2024-02-14T01:17:17;6.90;;;5.03;;
6987;SDS011;3534;49.960;8.018;2024-02-14T01:19:44;6.63;;;4.50;;
6987;SDS011;3534;49.960;8.018;2024-02-14T01:22:11;9.03;;;4.67;;
6987;SDS011;3534;49.960;8.018;2024-02-14T01:24:41;6.60;;;4.03;;
6987;SDS011;3534;49.960;8.018;2024-02-14T01:27:08;8.30;;;4.47;;
6987;SDS011;3534;49.960;8.018;2024-02-14T01:29:35;8.53;;;4.97;;
6987;SDS011;3534;49.960;8.018;2024-02-14T01:32:01;7.40;;;5.27;;
6987;SDS011;3534;49.960;8.018;2024-02-14T01:34:30;8.17;;;4.20;;
6987;SDS011;3534;49.960;8.018;2024-02-14T01:36:57;9.80;;;4.20;;
6987;SDS011;3534;49.960;8.018;2024-02-14T01:39:24;9.10;;;4.70;;
6987;SDS011;3534;49.960;8.018;2024-02-14T01:41:50;5.03;;;3.67;;
6987;SDS011;3534;49.960;8.018;2024-02-14T01:44:17;6.30;;;4.00;;
6987;SDS011;3534;49.960;8.018;2024-02-14T01:46:45;9.43;;;4.97;;
6987;SDS011;3534;49.960;8.018;2024-02-14T01:49:12;6.87;;;4.63;;
6987;SDS011;3534;49.960;8.018;2024-02-14T01:51:42;9.07;;;5.07;;
6987;SDS011;3534;49.960;8.018;2024-02-14T01:54:10;12.73;;;6.43;;
6987;SDS011;3534;49.960;8.018;2024-02-14T01:56:38;8.23;;;5.40;;
6987;SDS011;3534;49.960;8.018;2024-02-14T01:59:05;6.87;;;4.77;;
6987;SDS011;3534;49.960;8.018;2024-02-14T02:01:33;5.87;;;5.00;;
6987;SDS011;3534;49.960;8.018;2024-02-14T02:04:00;6.10;;;4.60;;
6987;SDS011;3534;49.960;8.018;2024-02-14T02:06:29;9.27;;;5.37;;
6987;SDS011;3534;49.960;8.018;2024-02-14T02:08:58;9.40;;;5.17;;
6987;SDS011;3534;49.960;8.018;2024-02-14T02:11:25;6.20;;;4.60;;
6987;SDS011;3534;49.960;8.018;2024-02-14T02:13:52;8.13;;;4.83;;
6987;SDS011;3534;49.960;8.018;2024-02-14T02:16:19;7.73;;;5.10;;
6987;SDS011;3534;49.960;8.018;2024-02-14T02:18:46;6.17;;;4.90;;
6987;SDS011;3534;49.960;8.018;2024-02-14T02:21:13;11.70;;;4.60;;
6987;SDS011;3534;49.960;8.018;2024-02-14T02:23:41;6.00;;;4.60;;
6987;SDS011;3534;49.960;8.018;2024-02-14T02:26:12;9.20;;;5.40;;
6987;SDS011;3534;49.960;8.018;2024-02-14T02:28:39;7.50;;;4.27;;
6987;SDS011;3534;49.960;8.018;2024-02-14T02:31:07;7.27;;;4.87;;
6987;SDS011;3534;49.960;8.018;2024-02-14T02:33:34;6.67;;;4.40;;
6987;SDS011;3534;49.960;8.018;2024-02-14T02:36:01;6.93;;;4.90;;
6987;SDS011;3534;49.960;8.018;2024-02-14T02:38:27;5.60;;;4.53;;
6987;SDS011;3534;49.960;8.018;2024-02-14T02:40:55;7.80;;;5.30;;
6987;SDS011;3534;49.960;8.018;2024-02-14T02:43:22;5.13;;;3.97;;
6987;SDS011;3534;49.960;8.018;2024-02-14T02:45:49;4.97;;;3.90;;
6987;SDS011;3534;49.960;8.018;2024-02-14T02:48:15;6.40;;;4.43;;
6987;SDS011;3534;49.960;8.018;2024-02-14T02:50:42;8.33;;;4.60;;
6987;SDS011;3534;49.960;8.018;2024-02-14T02:53:09;6.73;;;4.33;;
6987;SDS011;3534;49.960;8.018;2024-02-14T02:55:36;9.50;;;5.10;;
6987;SDS011;3534;49.960;8.018;2024-02-14T02:58:05;6.37;;;4.10;;
6987;SDS011;3534;49.960;8.018;2024-02-14T03:00:31;7.93;;;4.63;;
6987;SDS011;3534;49.960;8.018;2024-02-14T03:02:58;6.97;;;4.50;;
6987;SDS011;3534;49.960;8.018;2024-02-14T03:05:27;9.30;;;4.30;;
6987;SDS011;3534;49.960;8.018;2024-02-14T03:07:56;6.70;;;4.33;;
6987;SDS011;3534;49.960;8.018;2024-02-14T03:10:23;6.03;;;4.10;;
6987;SDS011;3534;49.960;8.018;2024-02-14T03:12:50;7.07;;;3.30;;
6987;SDS011;3534;49.960;8.018;2024-02-14T03:15:17;6.70;;;4.40;;
6987;SDS011;3534;49.960;8.018;2024-02-14T03:17:44;4.57;;;4.10;;
6987;SDS011;3534;49.960;8.018;2024-02-14T03:20:11;5.73;;;3.70;;
6987;SDS011;3534;49.960;8.018;2024-02-14T03:22:38;5.00;;;3.37;;
6987;SDS011;3534;49.960;8.018;2024-02-14T03:25:09;4.73;;;3.90;;
6987;SDS011;3534;49.960;8.018;2024-02-14T03:27:38;6.73;;;3.93;;
6987;SDS011;3534;49.960;8.018;2024-02-14T03:30:05;5.43;;;3.50;;
6987;SDS011;3534;49.960;8.018;2024-02-14T03:32:34;7.70;;;4.13;;
6987;SDS011;3534;49.960;8.018;2024-02-14T03:35:01;5.20;;;4.03;;
6987;SDS011;3534;49.960;8.018;2024-02-14T03:37:27;6.30;;;3.67;;
6987;SDS011;3534;49.960;8.018;2024-02-14T03:39:54;5.40;;;3.50;;
6987;SDS011;3534;49.960;8.018;2024-02-14T03:42:21;8.93;;;3.90;;
6987;SDS011;3534;49.960;8.018;2024-02-14T03:44:47;3.50;;;3.20;;
6987;SDS011;3534;49.960;8.018;2024-02-14T03:47:14;6.23;;;3.40;;
6987;SDS011;3534;49.960;8.018;2024-02-14T03:49:42;6.07;;;3.77;;
6987;SDS011;3534;49.960;8.018;2024-02-14T03:52:09;7.70;;;3.60;;
6987;SDS011;3534;49.960;8.018;2024-02-14T03:54:36;6.63;;;3.27;;
6987;SDS011;3534;49.960;8.018;2024-02-14T03:57:03;6.87;;;4.10;;
6987;SDS011;3534;49.960;8.018;2024-02-14T03:59:35;5.17;;;3.83;;
6987;SDS011;3534;49.960;8.018;2024-02-14T04:02:04;5.47;;;3.47;;
6987;SDS011;3534;49.960;8.018;2024-02-14T04:04:32;7.50;;;3.80;;
6987;SDS011;3534;49.960;8.018;2024-02-14T04:07:01;6.03;;;4.03;;
6987;SDS011;3534;49.960;8.018;2024-02-14T04:09:28;7.50;;;4.23;;
6987;SDS011;3534;49.960;8.018;2024-02-14T04:11:55;7.10;;;3.97;;
6987;SDS011;3534;49.960;8.018;2024-02-14T04:14:21;4.50;;;2.87;;
6987;SDS011;3534;49.960;8.018;2024-02-14T04:16:48;6.30;;;3.20;;
6987;SDS011;3534;49.960;8.018;2024-02-14T04:19:15;4.87;;;2.77;;
6987;SDS011;3534;49.960;8.018;2024-02-14T04:21:42;4.70;;;2.63;;
6987;SDS011;3534;49.960;8.018;2024-02-14T04:24:10;3.60;;;2.67;;
6987;SDS011;3534;49.960;8.018;2024-02-14T04:26:37;4.97;;;2.57;;
6987;SDS011;3534;49.960;8.018;2024-02-14T04:29:04;6.57;;;3.33;;
6987;SDS011;3534;49.960;8.018;2024-02-14T04:31:31;9.93;;;2.93;;
6987;SDS011;3534;49.960;8.018;2024-02-14T04:33:57;4.50;;;2.50;;
6987;SDS011;3534;49.960;8.018;2024-02-14T04:36:25;8.80;;;2.50;;
6987;SDS011;3534;49.960;8.018;2024-02-14T04:38:55;5.33;;;2.30;;
6987;SDS011;3534;49.960;8.018;2024-02-14T04:41:24;7.70;;;2.90;;
6987;SDS011;3534;49.960;8.018;2024-02-14T04:43:51;5.27;;;2.77;;
6987;SDS011;3534;49.960;8.018;2024-02-14T04:46:17;4.53;;;2.70;;
6987;SDS011;3534;49.960;8.018;2024-02-14T04:48:44;5.30;;;4.13;;
6987;SDS011;3534;49.960;8.018;2024-02-14T04:51:11;7.60;;;4.30;;
6987;SDS011;3534;49.960;8.018;2024-02-14T04:53:38;11.33;;;4.80;;
6987;SDS011;3534;49.960;8.018;2024-02-14T04:56:05;9.63;;;5.17;;
6987;SDS011;3534;49.960;8.018;2024-02-14T04:58:34;11.03;;;4.90;;
6987;SDS011;3534;49.960;8.018;2024-02-14T05:01:01;8.57;;;3.43;;
6987;SDS011;3534;49.960;8.018;2024-02-14T05:03:28;6.00;;;3.23;;
6987;SDS011;3534;49.960;8.018;2024-02-14T05:05:54;4.37;;;2.73;;
6987;SDS011;3534;49.960;8.018;2024-02-14T05:08:23;4.17;;;2.40;;
6987;SDS011;3534;49.960;8.018;2024-02-14T05:10:49;8.23;;;2.20;;
6987;SDS011;3534;49.960;8.018;2024-02-14T05:13:16;4.30;;;1.80;;
6987;SDS011;3534;49.960;8.018;2024-02-14T05:15:44;5.70;;;2.00;;
6987;SDS011;3534;49.960;8.018;2024-02-14T05:18:11;3.70;;;2.00;;
6987;SDS011;3534;49.960;8.018;2024-02-14T05:20:37;2.10;;;1.70;;
6987;SDS011;3534;49.960;8.018;2024-02-14T05:23:04;4.10;;;1.80;;
6987;SDS011;3534;49.960;8.018;2024-02-14T05:25:31;5.60;;;2.40;;
6987;SDS011;3534;49.960;8.018;2024-02-14T05:27:58;3.93;;;2.03;;
6987;SDS011;3534;49.960;8.018;2024-02-14T05:30:25;3.10;;;1.77;;
6987;SDS011;3534;49.960;8.018;2024-02-14T05:32:54;9.10;;;2.47;;
6987;SDS011;3534;49.960;8.018;2024-02-14T05:35:21;2.17;;;1.90;;
6987;SDS011;3534;49.960;8.018;2024-02-14T05:37:48;5.47;;;2.37;;
6987;SDS011;3534;49.960;8.018;2024-02-14T05:40:16;6.23;;;2.20;;
6987;SDS011;3534;49.960;8.018;2024-02-14T05:42:42;3.03;;;1.67;;
6987;SDS011;3534;49.960;8.018;2024-02-14T05:45:09;4.40;;;2.20;;
6987;SDS011;3534;49.960;8.018;2024-02-14T05:47:36;4.93;;;2.07;;
6987;SDS011;3534;49.960;8.018;2024-02-14T05:50:05;5.97;;;2.13;;
6987;SDS011;3534;49.960;8.018;2024-02-14T05:52:33;5.00;;;2.50;;
6987;SDS011;3534;49.960;8.018;2024-02-14T05:55:00;7.03;;;2.60;;
6987;SDS011;3534;49.960;8.018;2024-02-14T05:57:28;3.37;;;1.90;;
6987;SDS011;3534;49.960;8.018;2024-02-14T05:59:55;2.53;;;1.70;;
6987;SDS011;3534;49.960;8.018;2024-02-14T06:02:21;2.43;;;1.93;;
6987;SDS011;3534;49.960;8.018;2024-02-14T06:04:48;3.90;;;1.73;;
6987;SDS011;3534;49.960;8.018;2024-02-14T06:07:16;6.30;;;2.17;;
6987;SDS011;3534;49.960;8.018;2024-02-14T06:09:43;2.37;;;1.60;;
6987;SDS011;3534;49.960;8.018;2024-02-14T06:12:10;8.07;;;2.30;;
6987;SDS011;3534;49.960;8.018;2024-02-14T06:14:37;4.67;;;2.53;;
6987;SDS011;3534;49.960;8.018;2024-02-14T06:17:04;3.93;;;2.10;;
6987;SDS011;3534;49.960;8.018;2024-02-14T06:19:31;3.73;;;2.07;;
6987;SDS011;3534;49.960;8.018;2024-02-14T06:21:58;4.20;;;2.20;;
6987;SDS011;3534;49.960;8.018;2024-02-14T06:24:26;2.00;;;1.80;;
6987;SDS011;3534;49.960;8.018;2024-02-14T06:26:53;2.37;;;2.17;;
6987;SDS011;3534;49.960;8.018;2024-02-14T06:29:19;3.13;;;2.23;;
6987;SDS011;3534;49.960;8.018;2024-02-14T06:31:46;2.83;;;2.00;;
6987;SDS011;3534;49.960;8.018;2024-02-14T06:34:13;3.90;;;1.87;;
6987;SDS011;3534;49.960;8.018;2024-02-14T06:36:40;4.73;;;2.27;;
6987;SDS011;3534;49.960;8.018;2024-02-14T06:39:07;7.53;;;2.47;;
6987;SDS011;3534;49.960;8.018;2024-02-14T06:41:35;3.80;;;2.70;;
6987;SDS011;3534;49.960;8.018;2024-02-14T06:44:01;6.00;;;3.13;;
6987;SDS011;3534;49.960;8.018;2024-02-14T06:46:28;4.83;;;2.30;;
6987;SDS011;3534;49.960;8.018;2024-02-14T06:48:55;4.83;;;3.50;;
6987;SDS011;3534;49.960;8.018;2024-02-14T06:51:22;2.73;;;2.00;;
6987;SDS011;3534;49.960;8.018;2024-02-14T06:53:49;3.43;;;2.40;;
6987;SDS011;3534;49.960;8.018;2024-02-14T06:56:16;2.90;;;1.90;;
6987;SDS011;3534;49.960;8.018;2024-02-14T06:58:44;4.60;;;2.20;;
6987;SDS011;3534;49.960;8.018;2024-02-14T07:01:11;2.80;;;2.43;;
6987;SDS011;3534;49.960;8.018;2024-02-14T07:03:40;4.10;;;2.37;;
6987;SDS011;3534;49.960;8.018;2024-02-14T07:06:06;3.00;;;2.23;;
6987;SDS011;3534;49.960;8.018;2024-02-14T07:08:33;3.33;;;1.90;;
6987;SDS011;3534;49.960;8.018;2024-02-14T07:11:00;5.90;;;2.47;;
6987;SDS011;3534;49.960;8.018;2024-02-14T07:13:27;5.70;;;2.90;;
6987;SDS011;3534;49.960;8.018;2024-02-14T07:15:55;4.17;;;2.50;;
6987;SDS011;3534;49.960;8.018;2024-02-14T07:18:21;5.13;;;3.20;;
6987;SDS011;3534;49.960;8.018;2024-02-14T07:20:48;8.03;;;3.43;;
6987;SDS011;3534;49.960;8.018;2024-02-14T07:23:15;7.00;;;3.47;;
6987;SDS011;3534;49.960;8.018;2024-02-14T07:25:42;7.30;;;3.00;;
6987;SDS011;3534;49.960;8.018;2024-02-14T07:28:09;4.77;;;2.83;;
6987;SDS011;3534;49.960;8.018;2024-02-14T07:30:36;5.23;;;2.53;;
6987;SDS011;3534;49.960;8.018;2024-02-14T07:33:04;6.63;;;2.90;;
6987;SDS011;3534;49.960;8.018;2024-02-14T07:35:31;8.90;;;2.70;;
6987;SDS011;3534;49.960;8.018;2024-02-14T07:37:58;5.40;;;2.23;;
6987;SDS011;3534;49.960;8.018;2024-02-14T07:40:24;5.17;;;2.20;;
6987;SDS011;3534;49.960;8.018;2024-02-14T07:42:52;5.30;;;2.23;;
6987;SDS011;3534;49.960;8.018;2024-02-14T07:45:18;2.80;;;2.53;;
6987;SDS011;3534;49.960;8.018;2024-02-14T07:47:45;3.57;;;2.20;;
6987;SDS011;3534;49.960;8.018;2024-02-14T07:50:15;2.80;;;2.27;;
6987;SDS011;3534;49.960;8.018;2024-02-14T07:52:42;5.47;;;2.17;;
6987;SDS011;3534;49.960;8.018;2024-02-14T07:55:09;5.10;;;2.00;;
6987;SDS011;3534;49.960;8.018;2024-02-14T07:57:38;2.43;;;2.23;;
6987;SDS011;3534;49.960;8.018;2024-02-14T08:00:05;2.67;;;2.00;;
6987;SDS011;3534;49.960;8.018;2024-02-14T08:02:33;3.17;;;1.90;;
6987;SDS011;3534;49.960;8.018;2024-02-14T08:05:00;1.70;;;1.60;;
6987;SDS011;3534;49.960;8.018;2024-02-14T08:07:28;2.93;;;1.87;;
6987;SDS011;3534;49.960;8.018;2024-02-14T08:09:56;2.30;;;1.97;;
6987;SDS011;3534;49.960;8.018;2024-02-14T08:12:23;3.00;;;2.20;;
6987;SDS011;3534;49.960;8.018;2024-02-14T08:14:50;2.30;;;1.90;;
6987;SDS011;3534;49.960;8.018;2024-02-14T08:17:17;4.00;;;2.20;;
6987;SDS011;3534;49.960;8.018;2024-02-14T08:19:44;2.80;;;2.17;;
6987;SDS011;3534;49.960;8.018;2024-02-14T08:22:11;1.70;;;1.60;;
6987;SDS011;3534;49.960;8.018;2024-02-14T08:24:39;2.10;;;1.73;;
6987;SDS011;3534;49.960;8.018;2024-02-14T08:27:06;1.90;;;1.70;;
6987;SDS011;3534;49.960;8.018;2024-02-14T08:29:33;2.27;;;1.90;;
6987;SDS011;3534;49.960;8.018;2024-02-14T08:31:59;2.90;;;2.10;;
6987;SDS011;3534;49.960;8.018;2024-02-14T08:34:26;2.43;;;1.90;;
6987;SDS011;3534;49.960;8.018;2024-02-14T08:36:54;2.70;;;1.93;;
6987;SDS011;3534;49.960;8.018;2024-02-14T08:39:20;4.90;;;2.10;;
6987;SDS011;3534;49.960;8.018;2024-02-14T08:41:48;5.40;;;2.60;;
6987;SDS011;3534;49.960;8.018;2024-02-14T08:44:15;1.77;;;1.67;;
6987;SDS011;3534;49.960;8.018;2024-02-14T08:46:43;5.97;;;1.83;;
6987;SDS011;3534;49.960;8.018;2024-02-14T08:49:13;2.13;;;1.93;;
6987;SDS011;3534;49.960;8.018;2024-02-14T08:51:40;3.37;;;2.10;;
6987;SDS011;3534;49.960;8.018;2024-02-14T08:54:08;6.50;;;3.03;;
6987;SDS011;3534;49.960;8.018;2024-02-14T08:56:36;5.20;;;2.50;;
6987;SDS011;3534;49.960;8.018;2024-02-14T08:59:04;2.10;;;1.90;;
6987;SDS011;3534;49.960;8.018;2024-02-14T09:01:31;4.63;;;2.57;;
6987;SDS011;3534;49.960;8.018;2024-02-14T09:03:59;3.27;;;2.00;;
6987;SDS011;3534;49.960;8.018;2024-02-14T09:06:26;2.63;;;2.30;;
6987;SDS011;3534;49.960;8.018;2024-02-14T09:08:52;4.60;;;2.50;;
6987;SDS011;3534;49.960;8.018;2024-02-14T09:11:19;5.10;;;2.20;;
6987;SDS011;3534;49.960;8.018;2024-02-14T09:13:47;3.00;;;2.10;;
6987;SDS011;3534;49.960;8.018;2024-02-14T09:16:17;4.83;;;2.17;;
6987;SDS011;3534;49.960;8.018;2024-02-14T09:18:44;4.93;;;2.33;;
6987;SDS011;3534;49.960;8.018;2024-02-14T09:21:11;3.13;;;2.30;;
6987;SDS011;3534;49.960;8.018;2024-02-14T09:23:40;2.80;;;2.43;;
6987;SDS011;3534;49.960;8.018;2024-02-14T09:26:07;7.07;;;2.50;;
6987;SDS011;3534;49.960;8.018;2024-02-14T09:28:33;3.00;;;2.40;;
6987;SDS011;3534;49.960;8.018;2024-02-14T09:31:01;2.10;;;1.90;;
6987;SDS011;3534;49.960;8.018;2024-02-14T09:33:30;2.30;;;1.83;;
6987;SDS011;3534;49.960;8.018;2024-02-14T09:35:57;3.47;;;2.10;;
6987;SDS011;3534;49.960;8.018;2024-02-14T09:38:24;4.27;;;2.47;;
6987;SDS011;3534;49.960;8.018;2024-02-14T09:40:50;3.10;;;2.00;;
6987;SDS011;3534;49.960;8.018;2024-02-14T09:43:22;2.00;;;1.80;;
6987;SDS011;3534;49.960;8.018;2024-02-14T09:45:57;2.90;;;1.93;;
6987;SDS011;3534;49.960;8.018;2024-02-14T09:48:24;2.57;;;2.10;;
6987;SDS011;3534;49.960;8.018;2024-02-14T09:50:54;5.43;;;2.60;;
6987;SDS011;3534;49.960;8.018;2024-02-14T09:53:23;2.90;;;2.20;;
6987;SDS011;3534;49.960;8.018;2024-02-14T09:55:50;4.30;;;2.30;;
6987;SDS011;3534;49.960;8.018;2024-02-14T09:58:17;5.67;;;2.30;;
6987;SDS011;3534;49.960;8.018;2024-02-14T10:00:44;3.73;;;1.80;;
6987;SDS011;3534;49.960;8.018;2024-02-14T10:03:11;4.50;;;1.80;;
6987;SDS011;3534;49.960;8.018;2024-02-14T10:05:38;3.13;;;1.80;;
6987;SDS011;3534;49.960;8.018;2024-02-14T10:08:06;2.90;;;1.60;;
6987;SDS011;3534;49.960;8.018;2024-02-14T10:10:34;2.90;;;1.70;;
6987;SDS011;3534;49.960;8.018;2024-02-14T10:13:03;2.33;;;1.60;;
6987;SDS011;3534;49.960;8.018;2024-02-14T10:15:30;1.63;;;1.50;;
6987;SDS011;3534;49.960;8.018;2024-02-14T10:17:57;2.40;;;1.50;;
6987;SDS011;3534;49.960;8.018;2024-02-14T10:20:24;1.90;;;1.70;;
6987;SDS011;3534;49.960;8.018;2024-02-14T10:22:52;2.80;;;1.60;;
6987;SDS011;3534;49.960;8.018;2024-02-14T10:25:28;2.90;;;1.70;;
6987;SDS011;3534;49.960;8.018;2024-02-14T10:27:54;2.20;;;2.00;;
6987;SDS011;3534;49.960;8.018;2024-02-14T10:30:22;2.40;;;1.70;;
6987;SDS011;3534;49.960;8.018;2024-02-14T10:32:50;1.63;;;1.33;;
6987;SDS011;3534;49.960;8.018;2024-02-14T10:35:16;1.53;;;1.27;;
6987;SDS011;3534;49.960;8.018;2024-02-14T10:37:46;1.83;;;1.60;;
6987;SDS011;3534;49.960;8.018;2024-02-14T10:40:14;4.10;;;1.87;;
6987;SDS011;3534;49.960;8.018;2024-02-14T10:42:42;1.80;;;1.70;;
6987;SDS011;3534;49.960;8.018;2024-02-14T10:45:09;4.00;;;1.50;;
6987;SDS011;3534;49.960;8.018;2024-02-14T10:47:36;3.23;;;2.00;;
6987;SDS011;3534;49.960;8.018;2024-02-14T10:50:08;3.27;;;1.60;;
6987;SDS011;3534;49.960;8.018;2024-02-14T10:52:40;1.50;;;1.33;;
6987;SDS011;3534;49.960;8.018;2024-02-14T10:55:07;2.00;;;1.70;;
6987;SDS011;3534;49.960;8.018;2024-02-14T10:57:36;1.70;;;1.20;;
6987;SDS011;3534;49.960;8.018;2024-02-14T11:00:06;1.70;;;1.60;;
6987;SDS011;3534;49.960;8.018;2024-02-14T11:02:35;1.40;;;1.17;;
6987;SDS011;3534;49.960;8.018;2024-02-14T11:05:02;1.97;;;1.60;;
6987;SDS011;3534;49.960;8.018;2024-02-14T11:07:32;1.87;;;1.63;;
6987;SDS011;3534;49.960;8.018;2024-02-14T11:10:04;2.40;;;1.90;;
6987;SDS011;3534;49.960;8.018;2024-02-14T11:12:32;1.93;;;1.23;;
6987;SDS011;3534;49.960;8.018;2024-02-14T11:15:01;2.73;;;1.43;;
6987;SDS011;3534;49.960;8.018;2024-02-14T11:17:37;1.33;;;1.00;;
6987;SDS011;3534;49.960;8.018;2024-02-14T11:20:11;1.40;;;1.20;;
6987;SDS011;3534;49.960;8.018;2024-02-14T11:22:50;1.67;;;1.57;;
6987;SDS011;3534;49.960;8.018;2024-02-14T11:25:22;1.50;;;1.20;;
6987;SDS011;3534;49.960;8.018;2024-02-14T11:27:50;1.33;;;1.23;;
6987;SDS011;3534;49.960;8.018;2024-02-14T11:30:27;1.67;;;1.27;;
6987;SDS011;3534;49.960;8.018;2024-02-14T11:32:55;1.97;;;1.40;;
6987;SDS011;3534;49.960;8.018;2024-02-14T11:35:34;2.83;;;1.33;;
6987;SDS011;3534;49.960;8.018;2024-02-14T11:38:01;3.03;;;1.63;;
6987;SDS011;3534;49.960;8.018;2024-02-14T11:40:28;1.53;;;1.27;;
6987;SDS011;3534;49.960;8.018;2024-02-14T11:42:55;1.77;;;1.67;;
6987;SDS011;3534;49.960;8.018;2024-02-14T11:45:22;3.00;;;2.20;;
6987;SDS011;3534;49.960;8.018;2024-02-14T11:47:50;2.13;;;1.87;;
6987;SDS011;3534;49.960;8.018;2024-02-14T11:50:17;2.80;;;2.27;;
6987;SDS011;3534;49.960;8.018;2024-02-14T11:52:44;1.80;;;1.70;;
6987;SDS011;3534;49.960;8.018;2024-02-14T11:55:11;3.53;;;2.07;;
6987;SDS011;3534;49.960;8.018;2024-02-14T11:57:39;1.43;;;1.27;;
6987;SDS011;3534;49.960;8.018;2024-02-14T12:00:06;2.53;;;2.33;;
6987;SDS011;3534;49.960;8.018;2024-02-14T12:02:34;2.60;;;2.27;;
6987;SDS011;3534;49.960;8.018;2024-02-14T12:05:03;3.20;;;2.10;;
6987;SDS011;3534;49.960;8.018;2024-02-14T12:07:30;4.20;;;2.47;;
6987;SDS011;3534;49.960;8.018;2024-02-14T12:09:57;3.23;;;2.43;;
6987;SDS011;3534;49.960;8.018;2024-02-14T12:12:24;3.53;;;2.30;;
6987;SDS011;3534;49.960;8.018;2024-02-14T12:14:51;4.03;;;2.30;;
6987;SDS011;3534;49.960;8.018;2024-02-14T12:17:18;2.30;;;2.10;;
6987;SDS011;3534;49.960;8.018;2024-02-14T12:19:46;3.90;;;2.10;;
6987;SDS011;3534;49.960;8.018;2024-02-14T12:22:15;2.13;;;1.80;;
6987;SDS011;3534;49.960;8.018;2024-02-14T12:24:44;2.27;;;2.07;;
6987;SDS011;3534;49.960;8.018;2024-02-14T12:27:10;2.03;;;1.90;;
6987;SDS011;3534;49.960;8.018;2024-02-14T12:29:37;2.37;;;1.97;;
6987;SDS011;3534;49.960;8.018;2024-02-14T12:32:04;3.40;;;2.03;;
6987;SDS011;3534;49.960;8.018;2024-02-14T12:34:32;2.80;;;2.10;;
6987;SDS011;3534;49.960;8.018;2024-02-14T12:36:59;2.37;;;1.93;;
6987;SDS011;3534;49.960;8.018;2024-02-14T12:39:27;2.87;;;2.30;;
6987;SDS011;3534;49.960;8.018;2024-02-14T12:41:54;3.30;;;2.20;;
6987;SDS011;3534;49.960;8.018;2024-02-14T12:44:21;3.50;;;2.37;;
6987;SDS011;3534;49.960;8.018;2024-02-14T12:46:47;3.00;;;2.00;;
6987;SDS011;3534;49.960;8.018;2024-02-14T12:49:14;2.57;;;2.23;;
6987;SDS011;3534;49.960;8.018;2024-02-14T12:51:42;5.90;;;3.40;;
6987;SDS011;3534;49.960;8.018;2024-02-14T12:54:09;3.10;;;2.63;;
6987;SDS011;3534;49.960;8.018;2024-02-14T12:56:38;2.93;;;2.23;;
6987;SDS011;3534;49.960;8.018;2024-02-14T12:59:05;2.90;;;2.70;;
6987;SDS011;3534;49.960;8.018;2024-02-14T13:01:35;5.10;;;3.13;;
6987;SDS011;3534;49.960;8.018;2024-02-14T13:04:02;3.40;;;3.10;;
6987;SDS011;3534;49.960;8.018;2024-02-14T13:06:30;4.20;;;3.63;;
6987;SDS011;3534;49.960;8.018;2024-02-14T13:08:57;4.17;;;3.20;;
6987;SDS011;3534;49.960;8.018;2024-02-14T13:11:23;5.87;;;3.90;;
6987;SDS011;3534;49.960;8.018;2024-02-14T13:13:51;3.80;;;3.50;;
6987;SDS011;3534;49.960;8.018;2024-02-14T13:16:19;4.83;;;3.47;;
6987;SDS011;3534;49.960;8.018;2024-02-14T13:18:45;5.90;;;3.60;;
6987;SDS011;3534;49.960;8.018;2024-02-14T13:21:12;6.30;;;3.63;;
6987;SDS011;3534;49.960;8.018;2024-02-14T13:23:39;4.53;;;3.60;;
6987;SDS011;3534;49.960;8.018;2024-02-14T13:26:06;3.80;;;3.03;;
6987;SDS011;3534;49.960;8.018;2024-02-14T13:28:32;3.73;;;3.10;;
6987;SDS011;3534;49.960;8.018;2024-02-14T13:31:01;4.40;;;3.57;;
6987;SDS011;3534;49.960;8.018;2024-02-14T13:33:27;5.87;;;3.80;;
6987;SDS011;3534;49.960;8.018;2024-02-14T13:35:54;4.90;;;3.57;;
6987;SDS011;3534;49.960;8.018;2024-02-14T13:38:21;8.10;;;3.67;;
6987;SDS011;3534;49.960;8.018;2024-02-14T13:40:48;4.43;;;3.63;;
6987;SDS011;3534;49.960;8.018;2024-02-14T13:43:14;6.20;;;3.80;;
6987;SDS011;3534;49.960;8.018;2024-02-14T13:45:43;7.27;;;4.77;;
6987;SDS011;3534;49.960;8.018;2024-02-14T13:48:12;6.20;;;4.53;;
6987;SDS011;3534;49.960;8.018;2024-02-14T13:50:39;6.40;;;5.03;;
6987;SDS011;3534;49.960;8.018;2024-02-14T13:53:07;4.93;;;4.13;;
6987;SDS011;3534;49.960;8.018;2024-02-14T13:55:34;4.70;;;4.00;;
6987;SDS011;3534;49.960;8.018;2024-02-14T13:58:01;5.83;;;3.93;;
6987;SDS011;3534;49.960;8.018;2024-02-14T14:00:28;6.13;;;4.07;;
6987;SDS011;3534;49.960;8.018;2024-02-14T14:02:54;6.57;;;4.07;;
6987;SDS011;3534;49.960;8.018;2024-02-14T14:05:23;6.23;;;4.13;;
6987;SDS011;3534;49.960;8.018;2024-02-14T14:07:49;3.43;;;3.10;;
6987;SDS011;3534;49.960;8.018;2024-02-14T14:10:17;9.03;;;4.23;;
6987;SDS011;3534;49.960;8.018;2024-02-14T14:12:43;6.90;;;4.93;;
6987;SDS011;3534;49.960;8.018;2024-02-14T14:15:10;4.50;;;3.80;;
6987;SDS011;3534;49.960;8.018;2024-02-14T14:17:37;3.30;;;3.00;;
6987;SDS011;3534;49.960;8.018;2024-02-14T14:20:04;5.20;;;2.83;;
6987;SDS011;3534;49.960;8.018;2024-02-14T14:22:34;4.53;;;3.20;;
6987;SDS011;3534;49.960;8.018;2024-02-14T14:25:03;3.00;;;2.80;;
6987;SDS011;3534;49.960;8.018;2024-02-14T14:27:31;4.43;;;4.03;;
6987;SDS011;3534;49.960;8.018;2024-02-14T14:29:58;3.60;;;3.30;;
6987;SDS011;3534;49.960;8.018;2024-02-14T14:32:24;7.23;;;3.13;;
6987;SDS011;3534;49.960;8.018;2024-02-14T14:34:51;3.40;;;3.10;;
6987;SDS011;3534;49.960;8.018;2024-02-14T14:37:18;8.73;;;3.17;;
6987;SDS011;3534;49.960;8.018;2024-02-14T14:39:46;3.50;;;3.03;;
6987;SDS011;3534;49.960;8.018;2024-02-14T14:42:13;3.57;;;3.23;;
6987;SDS011;3534;49.960;8.018;2024-02-14T14:44:39;7.30;;;3.43;;
6987;SDS011;3534;49.960;8.018;2024-02-14T14:47:07;3.60;;;3.30;;
6987;SDS011;3534;49.960;8.018;2024-02-14T14:49:33;3.70;;;3.13;;
6987;SDS011;3534;49.960;8.018;2024-02-14T14:52:00;4.00;;;3.43;;
6987;SDS011;3534;49.960;8.018;2024-02-14T14:54:29;5.23;;;3.93;;
6987;SDS011;3534;49.960;8.018;2024-02-14T14:56:57;4.07;;;3.00;;
6987;SDS011;3534;49.960;8.018;2024-02-14T14:59:24;3.40;;;3.10;;
6987;SDS011;3534;49.960;8.018;2024-02-14T15:01:51;8.13;;;3.70;;
6987;SDS011;3534;49.960;8.018;2024-02-14T15:04:19;5.30;;;4.00;;
6987;SDS011;3534;49.960;8.018;2024-02-14T15:06:45;6.70;;;4.63;;
6987;SDS011;3534;49.960;8.018;2024-02-14T15:09:12;6.27;;;3.90;;
6987;SDS011;3534;49.960;8.018;2024-02-14T15:11:39;3.07;;;2.70;;
6987;SDS011;3534;49.960;8.018;2024-02-14T15:14:07;3.20;;;2.90;;
6987;SDS011;3534;49.960;8.018;2024-02-14T15:16:33;2.50;;;2.30;;